createdAt,value
2023-01-20T00:02:02.254Z,53.60
2023-01-20T00:04:28.875Z,53.60
2023-01-20T00:06:55.547Z,53.60
2023-01-20T00:09:22.313Z,53.60
2023-01-20T00:11:48.922Z,53.60
2023-01-20T00:14:15.527Z,53.60
2023-01-20T00:16:42.119Z,53.60
2023-01-20T00:19:09.327Z,53.60
2023-01-20T00:21:35.969Z,53.60
2023-01-20T00:24:02.559Z,53.60
2023-01-20T00:26:29.172Z,53.60
2023-01-20T00:28:56.069Z,53.60
2023-01-20T00:31:24.346Z,53.60
2023-01-20T00:33:51.899Z,53.60
2023-01-20T00:36:19.307Z,53.60
2023-01-20T00:38:45.915Z,53.60
2023-01-20T00:41:12.638Z,53.60
2023-01-20T00:43:39.329Z,53.60
2023-01-20T00:46:06.114Z,53.60
2023-01-20T00:48:33.225Z,53.60
2023-01-20T00:50:59.838Z,53.50
2023-01-20T00:53:26.463Z,53.60
2023-01-20T00:55:53.056Z,53.60
2023-01-20T00:58:19.657Z,53.50
2023-01-20T01:00:50.431Z,53.60
2023-01-20T01:03:17.077Z,53.60
2023-01-20T01:05:44.126Z,53.50
2023-01-20T01:08:11.601Z,53.60
2023-01-20T01:10:38.488Z,53.60
2023-01-20T01:13:05.327Z,53.60
2023-01-20T01:15:31.928Z,53.60
2023-01-20T01:17:59.078Z,53.60
2023-01-20T01:20:25.801Z,53.60
2023-01-20T01:22:52.409Z,54.20
2023-01-20T01:25:19.249Z,53.60
2023-01-20T01:27:45.943Z,53.60
2023-01-20T01:30:12.819Z,53.60
2023-01-20T01:32:39.488Z,53.60
2023-01-20T01:35:06.498Z,53.60
2023-01-20T01:37:33.105Z,53.50
2023-01-20T01:39:59.716Z,53.60
2023-01-20T01:42:26.504Z,53.60
2023-01-20T01:45:08.230Z,53.60
2023-01-20T01:47:35.110Z,53.60
2023-01-20T01:50:01.736Z,53.60
2023-01-20T01:52:28.344Z,53.60
2023-01-20T01:54:54.960Z,53.60
2023-01-20T01:57:21.578Z,53.60
2023-01-20T01:59:48.172Z,53.60
2023-01-20T02:02:15.283Z,53.50
2023-01-20T02:04:43.790Z,53.60
2023-01-20T02:07:15.688Z,53.60
2023-01-20T02:09:42.288Z,53.60
2023-01-20T02:12:11.097Z,53.60
2023-01-20T02:14:42.573Z,53.60
2023-01-20T02:17:15.002Z,53.60
2023-01-20T02:20:15.538Z,53.60
2023-01-20T02:22:58.943Z,53.60
2023-01-20T02:25:37.532Z,53.60
2023-01-20T02:28:25.152Z,53.50
2023-01-20T02:31:25.228Z,53.50
2023-01-20T02:34:05.623Z,53.50
2023-01-20T02:36:44.819Z,53.50
2023-01-20T02:39:32.569Z,53.50
2023-01-20T02:42:07.633Z,53.50
2023-01-20T02:45:06.402Z,53.60
2023-01-20T02:47:51.860Z,53.50
2023-01-20T02:50:40.657Z,53.50
2023-01-20T02:53:07.259Z,53.60
2023-01-20T02:55:47.346Z,53.50
2023-01-20T02:58:17.180Z,53.50
2023-01-20T03:00:52.698Z,53.50
2023-01-20T03:03:22.701Z,53.50
2023-01-20T03:06:00.337Z,53.50
2023-01-20T03:08:28.315Z,53.50
2023-01-20T03:10:55.060Z,53.50
2023-01-20T03:13:23.084Z,53.50
2023-01-20T03:15:56.865Z,53.50
2023-01-20T03:18:24.152Z,53.50
2023-01-20T03:20:50.762Z,53.50
2023-01-20T03:23:17.462Z,53.50
2023-01-20T03:25:44.403Z,53.50
2023-01-20T03:28:11.007Z,53.50
2023-01-20T03:30:37.702Z,53.50
2023-01-20T03:33:04.312Z,53.50
2023-01-20T03:35:30.923Z,53.50
2023-01-20T03:37:57.521Z,53.50
2023-01-20T03:40:25.311Z,53.50
2023-01-20T03:43:01.758Z,53.50
2023-01-20T03:45:35.737Z,53.50
2023-01-20T03:48:18.843Z,53.50
2023-01-20T03:50:56.312Z,53.50
2023-01-20T03:53:35.817Z,53.50
2023-01-20T03:56:25.661Z,53.50
2023-01-20T03:58:53.338Z,53.50
2023-01-20T04:01:21.283Z,53.50
2023-01-20T04:03:49.999Z,53.50
2023-01-20T04:06:16.964Z,53.50
2023-01-20T04:08:50.929Z,53.50
2023-01-20T04:11:17.523Z,53.50
2023-01-20T04:13:44.107Z,53.50
2023-01-20T04:16:13.619Z,53.40
2023-01-20T04:18:41.360Z,53.40
2023-01-20T04:21:09.988Z,53.40
2023-01-20T04:23:41.930Z,53.40
2023-01-20T04:26:08.539Z,53.40
2023-01-20T04:28:35.175Z,53.50
2023-01-20T04:31:01.862Z,53.50
2023-01-20T04:33:28.512Z,53.40
2023-01-20T04:35:55.122Z,53.40
2023-01-20T04:38:21.714Z,53.40
2023-01-20T04:40:48.356Z,53.40
2023-01-20T04:43:15.528Z,53.40
2023-01-20T04:45:42.166Z,53.40
2023-01-20T04:48:09.038Z,53.40
2023-01-20T04:50:41.857Z,53.40
2023-01-20T04:53:11.035Z,53.40
2023-01-20T04:55:37.631Z,53.40
2023-01-20T04:58:04.233Z,53.50
2023-01-20T05:00:30.855Z,53.40
2023-01-20T05:02:58.505Z,53.40
2023-01-20T05:05:25.370Z,54.10
2023-01-20T05:07:53.176Z,53.40
2023-01-20T05:10:19.970Z,53.40
2023-01-20T05:12:46.607Z,53.40
2023-01-20T05:15:13.487Z,53.40
2023-01-20T05:17:40.293Z,53.40
2023-01-20T05:20:07.308Z,53.40
2023-01-20T05:22:33.895Z,54.10
2023-01-20T05:25:00.549Z,53.40
2023-01-20T05:27:27.144Z,53.40
2023-01-20T05:29:53.760Z,53.40
2023-01-20T05:32:20.336Z,53.40
2023-01-20T05:34:46.925Z,53.40
2023-01-20T05:37:13.509Z,53.40
2023-01-20T05:39:40.110Z,53.40
2023-01-20T05:42:06.713Z,53.40
2023-01-20T05:44:33.285Z,53.40
2023-01-20T05:46:59.874Z,53.40
2023-01-20T05:49:26.501Z,53.40
2023-01-20T05:51:53.106Z,53.40
2023-01-20T05:54:19.721Z,53.40
2023-01-20T05:56:47.946Z,53.40
2023-01-20T05:59:14.528Z,53.40
2023-01-20T06:01:41.149Z,53.40
2023-01-20T06:04:07.792Z,53.40
2023-01-20T06:06:34.401Z,53.30
2023-01-20T06:09:01.030Z,53.40
2023-01-20T06:11:27.621Z,53.40
2023-01-20T06:13:54.233Z,53.40
2023-01-20T06:16:20.933Z,53.50
2023-01-20T06:18:47.527Z,53.50
2023-01-20T06:21:14.132Z,53.50
2023-01-20T06:23:40.784Z,53.50
2023-01-20T06:26:08.941Z,53.50
2023-01-20T06:28:35.792Z,53.50
2023-01-20T06:31:10.190Z,53.50
2023-01-20T06:33:36.859Z,53.50
2023-01-20T06:36:04.382Z,53.50
2023-01-20T06:38:31.935Z,53.50
2023-01-20T06:41:06.383Z,53.50
2023-01-20T06:43:39.952Z,53.50
2023-01-20T06:46:07.201Z,53.40
2023-01-20T06:48:33.951Z,53.50
2023-01-20T06:51:04.540Z,53.50
2023-01-20T06:53:31.188Z,53.50
2023-01-20T06:55:58.282Z,53.50
2023-01-20T06:58:25.730Z,53.50
2023-01-20T07:00:52.964Z,53.50
2023-01-20T07:03:19.728Z,53.50
2023-01-20T07:06:03.474Z,53.50
2023-01-20T07:08:30.100Z,53.60
2023-01-20T07:10:56.737Z,53.50
2023-01-20T07:13:23.371Z,53.50
2023-01-20T07:15:49.978Z,53.50
2023-01-20T07:18:16.590Z,53.50
2023-01-20T07:20:43.761Z,53.50
2023-01-20T07:23:10.461Z,53.50
2023-01-20T07:25:38.332Z,53.50
2023-01-20T07:28:05.062Z,53.40
2023-01-20T07:30:31.728Z,53.50
2023-01-20T07:32:58.340Z,53.50
2023-01-20T07:35:24.985Z,53.50
2023-01-20T07:37:51.611Z,53.40
2023-01-20T07:40:18.411Z,53.40
2023-01-20T07:42:45.015Z,53.40
2023-01-20T07:45:11.760Z,53.40
2023-01-20T07:47:38.393Z,53.40
2023-01-20T07:50:05.393Z,53.40
2023-01-20T07:52:32.002Z,53.40
2023-01-20T07:54:58.582Z,53.40
2023-01-20T07:57:25.525Z,53.40
2023-01-20T07:59:52.110Z,53.40
2023-01-20T08:02:18.723Z,53.40
2023-01-20T08:04:45.368Z,53.40
2023-01-20T08:07:12.040Z,53.40
2023-01-20T08:09:40.468Z,53.40
2023-01-20T08:12:07.137Z,53.40
2023-01-20T08:14:34.061Z,53.40
2023-01-20T08:17:01.537Z,53.40
2023-01-20T08:19:31.152Z,53.40
2023-01-20T08:21:57.778Z,53.40
2023-01-20T08:24:24.369Z,53.40
2023-01-20T08:26:51.159Z,53.40
2023-01-20T08:29:17.766Z,53.40
2023-01-20T08:31:44.584Z,53.40
2023-01-20T08:34:12.130Z,53.40
2023-01-20T08:36:39.390Z,53.40
2023-01-20T08:39:06.904Z,53.50
2023-01-20T08:41:35.869Z,53.40
2023-01-20T08:44:04.337Z,53.40
2023-01-20T08:46:31.316Z,53.40
2023-01-20T08:48:57.981Z,53.40
2023-01-20T08:51:29.571Z,53.40
2023-01-20T08:53:56.193Z,53.50
2023-01-20T08:56:22.946Z,53.50
2023-01-20T08:58:49.584Z,53.50
2023-01-20T09:01:21.064Z,53.40
2023-01-20T09:04:03.433Z,53.50
2023-01-20T09:06:36.551Z,53.40
2023-01-20T09:09:04.550Z,53.40
2023-01-20T09:11:31.363Z,53.40
2023-01-20T09:13:57.972Z,53.40
2023-01-20T09:16:24.548Z,53.50
2023-01-20T09:18:51.185Z,53.40
2023-01-20T09:21:17.823Z,53.50
2023-01-20T09:23:46.885Z,53.40
2023-01-20T09:26:19.711Z,53.40
2023-01-20T09:28:56.274Z,53.40
2023-01-20T09:31:22.938Z,53.40
2023-01-20T09:33:49.559Z,53.40
2023-01-20T09:36:16.155Z,53.40
2023-01-20T09:39:01.308Z,53.50
2023-01-20T09:41:50.122Z,53.40
2023-01-20T09:44:39.880Z,53.40
2023-01-20T09:47:21.780Z,53.40
2023-01-20T09:50:40.682Z,53.40
2023-01-20T09:53:30.796Z,53.50
2023-01-20T09:55:58.804Z,53.50
2023-01-20T09:58:57.983Z,53.50
2023-01-20T10:01:35.385Z,53.50
2023-01-20T10:04:32.849Z,53.50
2023-01-20T10:07:14.458Z,53.50
2023-01-20T10:09:49.903Z,53.40
2023-01-20T10:12:45.817Z,53.50
2023-01-20T10:15:29.912Z,53.50
2023-01-20T10:18:09.268Z,53.50
2023-01-20T10:20:40.881Z,53.50
2023-01-20T10:23:14.493Z,53.50
2023-01-20T10:25:49.708Z,53.50
2023-01-20T10:28:26.470Z,53.50
2023-01-20T10:30:53.157Z,53.50
2023-01-20T10:33:23.810Z,53.60
2023-01-20T10:35:52.432Z,53.60
2023-01-20T10:38:47.713Z,53.60
2023-01-20T10:41:20.380Z,53.70
2023-01-20T10:43:47.729Z,53.70
2023-01-20T10:46:33.159Z,53.70
2023-01-20T10:49:25.545Z,53.70
2023-01-20T10:52:29.991Z,53.70
2023-01-20T10:55:05.380Z,53.70
2023-01-20T10:57:31.953Z,53.70
2023-01-20T11:00:00.707Z,53.70
2023-01-20T11:02:35.038Z,53.70
2023-01-20T11:05:02.953Z,53.70
2023-01-20T11:07:30.864Z,53.70
2023-01-20T11:09:57.492Z,53.80
2023-01-20T11:12:26.246Z,53.70
2023-01-20T11:14:54.284Z,53.80
2023-01-20T11:17:20.891Z,53.70
2023-01-20T11:19:52.781Z,53.80
2023-01-20T11:22:35.664Z,53.70
2023-01-20T11:25:04.030Z,53.80
2023-01-20T11:27:41.854Z,53.80
2023-01-20T11:30:29.049Z,53.80
2023-01-20T11:33:19.684Z,53.80
2023-01-20T11:36:03.982Z,53.80
2023-01-20T11:38:32.389Z,53.80
2023-01-20T11:40:59.130Z,53.90
2023-01-20T11:43:37.853Z,53.80
2023-01-20T11:46:21.339Z,53.80
2023-01-20T11:48:48.188Z,53.80
2023-01-20T11:51:21.489Z,53.70
2023-01-20T11:53:48.284Z,53.90
2023-01-20T11:56:23.762Z,53.80
2023-01-20T11:58:58.450Z,53.90
2023-01-20T12:01:26.582Z,53.90
2023-01-20T12:04:20.122Z,53.90
2023-01-20T12:06:54.801Z,53.90
2023-01-20T12:09:23.341Z,53.90
2023-01-20T12:11:53.635Z,53.90
2023-01-20T12:14:40.178Z,53.90
2023-01-20T12:17:29.224Z,54.00
2023-01-20T12:20:01.297Z,54.20
2023-01-20T12:22:43.921Z,54.00
2023-01-20T12:25:14.618Z,53.90
2023-01-20T12:27:45.452Z,54.00
2023-01-20T12:30:22.961Z,54.00
2023-01-20T12:32:50.817Z,54.00
2023-01-20T12:35:17.432Z,54.00
2023-01-20T12:37:47.213Z,54.00
2023-01-20T12:40:26.378Z,53.90
2023-01-20T12:43:14.610Z,53.90
2023-01-20T12:46:03.684Z,53.90
2023-01-20T12:48:52.437Z,53.90
2023-01-20T12:51:43.303Z,53.90
2023-01-20T12:54:21.093Z,54.00
2023-01-20T12:57:01.211Z,54.00
2023-01-20T12:59:38.028Z,54.00
2023-01-20T13:02:07.405Z,54.00
2023-01-20T13:04:56.324Z,54.00
2023-01-20T13:07:35.762Z,54.00
2023-01-20T13:10:51.402Z,54.00
2023-01-20T13:13:56.864Z,54.00
2023-01-20T13:16:28.945Z,54.00
2023-01-20T13:19:17.300Z,54.00
2023-01-20T13:21:43.941Z,54.00
2023-01-20T13:24:29.043Z,54.00
2023-01-20T13:26:56.665Z,54.00
2023-01-20T13:29:43.808Z,54.00
2023-01-20T13:32:29.186Z,54.00
2023-01-20T13:34:55.986Z,54.00
2023-01-20T13:37:30.731Z,54.00
2023-01-20T13:39:59.658Z,54.10
2023-01-20T13:42:38.284Z,54.10
2023-01-20T13:45:23.725Z,54.20
2023-01-20T13:48:01.076Z,54.20
2023-01-20T13:50:37.868Z,54.10
2023-01-20T13:53:28.169Z,54.20
2023-01-20T13:55:56.859Z,54.10
2023-01-20T13:58:35.821Z,54.20
2023-01-20T14:01:04.413Z,54.10
2023-01-20T14:03:32.644Z,54.10
2023-01-20T14:06:00.299Z,54.10
2023-01-20T14:08:31.301Z,54.10
2023-01-20T14:11:17.056Z,54.00
2023-01-20T14:13:52.397Z,54.00
2023-01-20T14:16:38.216Z,54.20
2023-01-20T14:19:23.423Z,54.00
2023-01-20T14:21:54.539Z,54.00
2023-01-20T14:24:32.715Z,54.10
2023-01-20T14:27:24.609Z,54.20
2023-01-20T14:29:52.601Z,54.20
2023-01-20T14:32:34.899Z,54.10
2023-01-20T14:35:01.908Z,54.10
2023-01-20T14:37:29.255Z,54.10
2023-01-20T14:39:58.663Z,54.10
2023-01-20T14:42:26.403Z,54.10
2023-01-20T14:44:54.015Z,54.10
2023-01-20T14:47:21.284Z,54.10
2023-01-20T14:49:48.576Z,54.10
2023-01-20T14:52:29.230Z,54.10
2023-01-20T14:54:58.885Z,54.10
2023-01-20T14:57:35.015Z,54.00
2023-01-20T15:00:15.068Z,54.10
2023-01-20T15:03:05.369Z,54.70
2023-01-20T15:05:38.316Z,54.10
2023-01-20T15:08:18.579Z,54.00
2023-01-20T15:10:45.595Z,54.10
2023-01-20T15:13:26.068Z,54.10
2023-01-20T15:15:52.666Z,54.00
2023-01-20T15:18:23.222Z,54.10
2023-01-20T15:20:54.932Z,54.00
2023-01-20T15:23:31.737Z,54.00
2023-01-20T15:26:21.198Z,54.00
2023-01-20T15:28:48.283Z,54.00
2023-01-20T15:31:15.422Z,54.00
2023-01-20T15:33:42.487Z,54.00
2023-01-20T15:36:29.225Z,54.00
2023-01-20T15:38:55.839Z,54.00
2023-01-20T15:41:22.579Z,54.00
2023-01-20T15:43:51.285Z,54.00
2023-01-20T15:46:18.150Z,54.00
2023-01-20T15:48:45.235Z,54.00
2023-01-20T15:51:16.399Z,54.00
2023-01-20T15:53:43.349Z,54.00
2023-01-20T15:56:23.487Z,54.00
2023-01-20T15:58:50.331Z,54.00
2023-01-20T16:01:19.145Z,54.00
2023-01-20T16:03:45.922Z,54.00
2023-01-20T16:06:16.409Z,54.00
2023-01-20T16:08:46.180Z,54.00
2023-01-20T16:11:13.607Z,53.90
2023-01-20T16:13:40.500Z,54.00
2023-01-20T16:16:14.517Z,54.00
2023-01-20T16:18:41.417Z,54.00
2023-01-20T16:21:10.250Z,54.00
2023-01-20T16:23:36.850Z,54.50
2023-01-20T16:26:16.481Z,54.00
2023-01-20T16:28:43.061Z,54.00
2023-01-20T16:31:11.564Z,54.00
2023-01-20T16:33:38.198Z,54.00
2023-01-20T16:36:06.348Z,54.00
2023-01-20T16:38:32.977Z,54.00
2023-01-20T16:41:23.293Z,54.60
2023-01-20T16:43:50.511Z,54.00
2023-01-20T16:46:23.649Z,54.00
2023-01-20T16:48:50.284Z,53.90
2023-01-20T16:51:18.527Z,53.90
2023-01-20T16:53:45.171Z,54.30
2023-01-20T16:56:16.083Z,53.90
2023-01-20T16:58:43.049Z,54.00
2023-01-20T17:01:12.689Z,53.90
2023-01-20T17:03:40.052Z,54.00
2023-01-20T17:06:16.556Z,53.90
2023-01-20T17:08:45.271Z,54.00
2023-01-20T17:11:17.207Z,53.90
2023-01-20T17:13:43.793Z,53.90
2023-01-20T17:16:10.414Z,54.00
2023-01-20T17:18:37.082Z,54.50
2023-01-20T17:21:06.050Z,53.90
2023-01-20T17:23:33.123Z,53.90
2023-01-20T17:26:02.171Z,53.90
2023-01-20T17:28:28.754Z,53.90
2023-01-20T17:30:56.556Z,53.90
2023-01-20T17:33:23.179Z,54.00
2023-01-20T17:36:00.218Z,53.90
2023-01-20T17:38:28.135Z,54.00
2023-01-20T17:40:54.735Z,54.00
2023-01-20T17:43:21.330Z,53.90
2023-01-20T17:45:47.969Z,53.90
2023-01-20T17:48:14.676Z,53.90
2023-01-20T17:50:41.289Z,53.90
2023-01-20T17:53:07.897Z,53.90
2023-01-20T17:55:34.470Z,53.90
2023-01-20T17:58:01.078Z,53.90
2023-01-20T18:00:27.672Z,54.00
2023-01-20T18:02:56.115Z,53.90
2023-01-20T18:05:22.723Z,53.90
2023-01-20T18:07:50.132Z,54.00
2023-01-20T18:10:17.569Z,53.90
2023-01-20T18:12:44.368Z,53.90
2023-01-20T18:15:10.989Z,53.90
2023-01-20T18:17:38.111Z,53.90
2023-01-20T18:20:05.313Z,53.90
2023-01-20T18:22:31.909Z,53.90
2023-01-20T18:24:58.560Z,53.90
2023-01-20T18:27:25.190Z,53.80
2023-01-20T18:29:51.796Z,54.00
2023-01-20T18:32:18.422Z,53.90
2023-01-20T18:34:45.013Z,54.00
2023-01-20T18:37:11.613Z,53.80
2023-01-20T18:39:38.812Z,54.50
2023-01-20T18:42:05.448Z,53.90
2023-01-20T18:44:32.062Z,53.90
2023-01-20T18:46:58.791Z,53.90
2023-01-20T18:49:25.401Z,53.90
2023-01-20T18:51:52.040Z,53.80
2023-01-20T18:54:20.806Z,53.90
2023-01-20T18:56:47.412Z,54.20
2023-01-20T18:59:14.092Z,53.80
2023-01-20T19:01:40.972Z,53.80
2023-01-20T19:04:08.821Z,53.80
2023-01-20T19:06:37.241Z,53.80
2023-01-20T19:09:04.220Z,53.80
2023-01-20T19:11:31.971Z,53.90
2023-01-20T19:13:58.938Z,53.80
2023-01-20T19:16:27.844Z,53.80
2023-01-20T19:18:56.075Z,53.80
2023-01-20T19:21:22.840Z,53.80
2023-01-20T19:23:51.756Z,53.80
2023-01-20T19:26:18.661Z,53.80
2023-01-20T19:28:46.222Z,53.90
2023-01-20T19:31:17.871Z,53.80
2023-01-20T19:33:44.872Z,53.80
2023-01-20T19:36:13.309Z,53.80
2023-01-20T19:38:39.923Z,53.80
2023-01-20T19:41:07.569Z,53.80
2023-01-20T19:43:34.192Z,53.80
2023-01-20T19:46:08.667Z,53.80
2023-01-20T19:48:35.380Z,53.80
2023-01-20T19:51:03.625Z,54.50
2023-01-20T19:53:30.508Z,53.80
2023-01-20T19:56:01.736Z,53.80
2023-01-20T19:58:28.525Z,53.80
2023-01-20T20:00:55.286Z,53.80
2023-01-20T20:03:22.013Z,53.90
2023-01-20T20:05:48.600Z,53.80
2023-01-20T20:08:15.180Z,53.80
2023-01-20T20:10:42.610Z,53.80
2023-01-20T20:13:09.192Z,53.90
2023-01-20T20:15:35.790Z,53.90
2023-01-20T20:18:02.428Z,53.90
2023-01-20T20:20:29.023Z,53.90
2023-01-20T20:22:55.628Z,53.90
2023-01-20T20:25:22.207Z,53.80
2023-01-20T20:27:48.823Z,53.80
2023-01-20T20:30:15.919Z,53.90
2023-01-20T20:32:42.720Z,53.80
2023-01-20T20:35:09.404Z,53.90
2023-01-20T20:37:36.020Z,53.80
2023-01-20T20:40:02.626Z,53.80
2023-01-20T20:42:30.131Z,53.90
2023-01-20T20:44:56.721Z,53.80
2023-01-20T20:47:25.217Z,53.90
2023-01-20T20:49:53.616Z,53.80
2023-01-20T20:52:20.207Z,53.80
2023-01-20T20:54:46.841Z,53.80
2023-01-20T20:57:13.758Z,53.80
2023-01-20T20:59:54.053Z,53.80
2023-01-20T21:02:25.480Z,53.80
2023-01-20T21:04:52.122Z,53.90
2023-01-20T21:07:19.433Z,53.90
2023-01-20T21:09:46.080Z,53.80
2023-01-20T21:12:12.662Z,53.90
2023-01-20T21:14:39.303Z,53.90
2023-01-20T21:17:05.899Z,53.80
2023-01-20T21:19:32.497Z,53.90
2023-01-20T21:21:59.150Z,53.90
2023-01-20T21:24:29.057Z,53.90
2023-01-20T21:26:56.118Z,53.90
2023-01-20T21:29:22.729Z,53.80
2023-01-20T21:31:50.256Z,53.80
2023-01-20T21:34:16.910Z,53.80
2023-01-20T21:36:43.530Z,53.90
2023-01-20T21:39:13.776Z,53.70
2023-01-20T21:41:40.406Z,53.90
2023-01-20T21:44:29.055Z,53.90
2023-01-20T21:47:06.032Z,53.90
2023-01-20T21:49:51.402Z,53.90
2023-01-20T21:52:41.066Z,53.90
2023-01-20T21:55:16.604Z,53.90
2023-01-20T21:57:43.263Z,53.90
2023-01-20T22:00:10.561Z,53.90
2023-01-20T22:02:37.183Z,53.90
2023-01-20T22:05:03.944Z,53.80
2023-01-20T22:07:30.547Z,53.90
2023-01-20T22:09:58.251Z,53.90
2023-01-20T22:12:25.031Z,53.80
2023-01-20T22:14:51.652Z,53.90
2023-01-20T22:17:18.234Z,53.90
2023-01-20T22:19:44.886Z,53.90
2023-01-20T22:22:13.435Z,53.90
2023-01-20T22:24:41.650Z,53.90
2023-01-20T22:27:08.229Z,53.90
2023-01-20T22:29:34.844Z,53.90
2023-01-20T22:32:03.177Z,53.80
2023-01-20T22:34:29.770Z,53.90
2023-01-20T22:36:57.469Z,53.90
2023-01-20T22:39:24.113Z,53.80
2023-01-20T22:41:50.714Z,53.90
2023-01-20T22:44:17.377Z,53.90
2023-01-20T22:46:43.986Z,53.90
2023-01-20T22:49:10.556Z,53.90
2023-01-20T22:51:37.147Z,53.80
2023-01-20T22:54:03.935Z,53.80
2023-01-20T22:56:31.540Z,53.90
2023-01-20T22:58:58.477Z,53.90
2023-01-20T23:01:30.036Z,53.90
2023-01-20T23:04:01.558Z,53.90
2023-01-20T23:06:29.731Z,53.80
2023-01-20T23:08:56.313Z,53.80
2023-01-20T23:11:23.278Z,53.80
2023-01-20T23:13:50.230Z,53.80
2023-01-20T23:16:18.804Z,53.80
2023-01-20T23:18:46.205Z,53.80
2023-01-20T23:21:12.819Z,53.80
2023-01-20T23:23:39.438Z,53.80
2023-01-20T23:26:08.465Z,53.80
2023-01-20T23:28:35.350Z,53.80
2023-01-20T23:31:09.110Z,53.80
2023-01-20T23:33:35.777Z,53.80
2023-01-20T23:36:14.456Z,53.80
2023-01-20T23:38:41.324Z,53.90
2023-01-20T23:41:08.119Z,53.80
2023-01-20T23:43:34.714Z,53.80
2023-01-20T23:46:02.165Z,53.80
2023-01-20T23:48:28.904Z,53.90
2023-01-20T23:50:56.439Z,53.80
2023-01-20T23:53:23.119Z,53.90
2023-01-20T23:55:49.732Z,53.90
2023-01-20T23:58:16.333Z,53.90
